Time;durP1;ratioP1;P1;durP2;ratioP2;P2;SDS_P1;SDS_P2;PMS_P1;PMS_P2;Temp;Humidity;BMP_temperature;BMP_pressure;BME280_temperature;BME280_humidity;BME280_pressure;Samples;Min_cycle;Max_cycle;Signal;HPM_P1;HPM_P2
2021/01/12 00:00:28;;;;;;;69.32;41.13;;;-3.60;90.80;;;;;;5107068;28;20412;-71
2021/01/12 00:02:55;;;;;;;73.15;42.22;;;-3.60;91.00;;;;;;5093065;28;20513;-71
2021/01/12 00:05:23;;;;;;;67.03;40.00;;;-3.60;90.80;;;;;;5107202;28;20475;-71
2021/01/12 00:07:50;;;;;;;67.65;39.33;;;-3.60;90.60;;;;;;5092790;28;20909;-71
2021/01/12 00:10:21;;;;;;;67.03;39.30;;;-3.60;90.60;;;;;;5107381;28;20420;-71
2021/01/12 00:12:53;;;;;;;64.35;39.08;;;-3.50;90.50;;;;;;5052502;28;20434;-71
2021/01/12 00:15:21;;;;;;;64.45;38.47;;;-3.50;90.20;;;;;;5052597;28;20783;-71
2021/01/12 00:17:48;;;;;;;66.47;38.20;;;-3.50;90.00;;;;;;5105396;28;20875;-71
2021/01/12 00:20:14;;;;;;;68.60;40.15;;;-3.50;90.00;;;;;;5092477;28;20400;-71
2021/01/12 00:22:41;;;;;;;67.57;38.35;;;-3.50;90.20;;;;;;5073962;28;20405;-70
2021/01/12 00:25:08;;;;;;;69.87;39.67;;;-3.50;90.00;;;;;;5072409;28;20841;-71
2021/01/12 00:27:54;;;;;;;69.05;39.28;;;-3.60;90.20;;;;;;5087303;28;20422;-71
2021/01/12 00:30:21;;;;;;;62.92;38.50;;;-3.60;90.40;;;;;;5090271;28;20412;-71
2021/01/12 00:32:48;;;;;;;70.75;40.90;;;-3.50;90.30;;;;;;5097688;28;20420;-71
2021/01/12 00:35:17;;;;;;;72.25;40.55;;;-3.50;90.50;;;;;;5112583;28;20429;-71
2021/01/12 00:37:43;;;;;;;73.95;42.28;;;-3.60;90.50;;;;;;5091111;28;20426;-71
2021/01/12 00:40:10;;;;;;;74.30;43.53;;;-3.50;90.60;;;;;;5096846;28;20397;-71
2021/01/12 00:42:37;;;;;;;80.22;46.10;;;-3.60;90.80;;;;;;5086791;28;20411;-71
2021/01/12 00:45:04;;;;;;;79.80;46.33;;;-3.50;90.80;;;;;;5073888;28;20407;-71
2021/01/12 00:47:32;;;;;;;85.47;46.75;;;-3.50;90.80;;;;;;5073797;28;20847;-71
2021/01/12 00:49:59;;;;;;;79.60;46.13;;;-3.50;90.90;;;;;;5094202;28;20760;-71
2021/01/12 00:52:28;;;;;;;88.65;47.58;;;-3.50;90.80;;;;;;5095738;28;20497;-71
2021/01/12 00:54:54;;;;;;;83.20;46.83;;;-3.50;90.80;;;;;;5109650;28;20480;-71
2021/01/12 00:57:23;;;;;;;82.97;48.45;;;-3.50;90.80;;;;;;5114238;28;20873;-71
2021/01/12 00:59:49;;;;;;;90.90;51.75;;;-3.60;90.90;;;;;;5110317;28;20462;-71
2021/01/12 01:02:15;;;;;;;98.72;54.13;;;-3.60;91.00;;;;;;5114126;28;20392;-71
2021/01/12 01:04:42;;;;;;;100.90;54.45;;;-3.60;91.10;;;;;;5092880;28;20488;-71
2021/01/12 01:07:08;;;;;;;86.05;49.58;;;-3.60;91.20;;;;;;5114026;28;20397;-71
2021/01/12 01:09:35;;;;;;;83.85;48.00;;;-3.50;91.10;;;;;;5092519;28;20777;-71
2021/01/12 01:12:04;;;;;;;94.88;53.63;;;-3.50;91.10;;;;;;5095709;28;20465;-71
2021/01/12 01:14:33;;;;;;;96.43;55.35;;;-3.60;91.20;;;;;;5105081;28;20410;-71
2021/01/12 01:17:00;;;;;;;107.22;58.75;;;-3.60;91.40;;;;;;5075637;28;20478;-71
2021/01/12 01:19:28;;;;;;;106.18;58.63;;;-3.60;91.60;;;;;;5090441;28;21936;-71
2021/01/12 01:21:55;;;;;;;105.35;58.28;;;-3.50;91.70;;;;;;5089939;28;20424;-71
2021/01/12 01:24:26;;;;;;;113.60;60.03;;;-3.50;91.60;;;;;;5113749;28;20408;-71
2021/01/12 01:26:56;;;;;;;110.93;60.72;;;-3.50;91.40;;;;;;5112199;28;20513;-71
2021/01/12 01:29:25;;;;;;;113.82;60.92;;;-3.50;91.40;;;;;;5113450;28;20505;-71
2021/01/12 01:31:51;;;;;;;109.85;61.38;;;-3.60;91.30;;;;;;5108979;28;20470;-71
2021/01/12 01:34:17;;;;;;;111.40;60.77;;;-3.60;91.40;;;;;;5113064;28;20811;-71
2021/01/12 01:36:46;;;;;;;114.30;62.33;;;-3.60;91.50;;;;;;5109969;28;20436;-71
2021/01/12 01:39:12;;;;;;;109.10;60.33;;;-3.60;91.50;;;;;;5097643;28;20433;-71
2021/01/12 01:41:39;;;;;;;109.47;60.07;;;-3.60;91.30;;;;;;5072369;28;20410;-71
2021/01/12 01:44:07;;;;;;;114.18;59.45;;;-3.70;91.50;;;;;;5089133;28;20403;-71
2021/01/12 01:46:35;;;;;;;108.05;58.92;;;-3.60;91.60;;;;;;5066541;28;20396;-71
2021/01/12 01:49:02;;;;;;;92.57;52.97;;;-3.60;91.40;;;;;;5093895;28;20889;-71
2021/01/12 01:51:32;;;;;;;90.35;51.13;;;-3.70;91.30;;;;;;5083207;28;20405;-71
2021/01/12 01:53:59;;;;;;;96.00;53.47;;;-3.70;91.50;;;;;;5095205;28;20444;-71
2021/01/12 01:56:26;;;;;;;77.20;43.88;;;-3.70;91.50;;;;;;5109436;28;20420;-71
2021/01/12 01:58:53;;;;;;;72.03;41.63;;;-3.70;91.20;;;;;;5095487;28;20495;-71
2021/01/12 02:01:19;;;;;;;71.25;40.53;;;-3.60;90.80;;;;;;5113015;28;20405;-71
2021/01/12 02:04:19;;;;;;;70.80;40.28;;;-3.70;90.40;;;;;;5072702;28;20438;-70
2021/01/12 02:06:48;;;;;;;71.18;41.33;;;-3.70;90.50;;;;;;5091611;28;20745;-71
2021/01/12 02:09:19;;;;;;;70.22;41.05;;;-3.80;90.70;;;;;;5093024;28;20415;-71
2021/01/12 02:11:52;;;;;;;72.10;42.03;;;-3.70;90.50;;;;;;5112921;28;20412;-71
2021/01/12 02:14:22;;;;;;;76.03;43.13;;;-3.80;90.50;;;;;;5109012;28;20404;-71
2021/01/12 02:16:52;;;;;;;74.65;42.75;;;-3.80;90.40;;;;;;5112623;28;20516;-70
2021/01/12 02:19:22;;;;;;;71.93;42.10;;;-3.80;90.40;;;;;;5108673;28;20443;-71
2021/01/12 02:21:55;;;;;;;73.63;42.88;;;-3.80;90.30;;;;;;5080921;28;20479;-71
2021/01/12 02:24:21;;;;;;;70.78;40.95;;;-3.90;90.50;;;;;;5102547;28;20492;-71
2021/01/12 02:26:48;;;;;;;78.53;42.97;;;-3.90;90.70;;;;;;5112513;28;20461;-70
2021/01/12 02:29:14;;;;;;;73.85;41.38;;;-3.90;90.70;;;;;;5108746;28;20404;-71
2021/01/12 02:31:43;;;;;;;73.18;41.28;;;-4.00;90.70;;;;;;5112150;28;20896;-71
2021/01/12 02:34:15;;;;;;;71.78;40.85;;;-4.00;90.60;;;;;;5090744;28;20400;-71
2021/01/12 02:36:44;;;;;;;72.63;41.30;;;-4.00;90.50;;;;;;5094398;28;20420;-71
2021/01/12 02:39:15;;;;;;;75.78;41.70;;;-4.00;90.70;;;;;;5094147;28;20398;-71
2021/01/12 02:41:44;;;;;;;75.35;40.72;;;-4.10;90.70;;;;;;5074192;28;20457;-71
2021/01/12 02:44:24;;;;;;;67.95;40.28;;;-4.10;90.80;;;;;;5089349;28;20517;-70
2021/01/12 02:46:55;;;;;;;74.00;41.03;;;-4.10;90.70;;;;;;5112179;28;20401;-71
2021/01/12 02:49:22;;;;;;;70.97;39.15;;;-4.10;90.80;;;;;;5106648;28;20451;-71
2021/01/12 02:51:49;;;;;;;69.68;39.17;;;-4.10;90.70;;;;;;5112215;28;20411;-71
2021/01/12 02:54:15;;;;;;;67.10;38.90;;;-4.10;90.60;;;;;;5111598;28;20498;-70
2021/01/12 02:56:42;;;;;;;68.25;39.15;;;-4.20;90.80;;;;;;5107678;28;20786;-71
2021/01/12 02:59:10;;;;;;;73.50;39.30;;;-4.20;90.90;;;;;;5111249;28;20786;-70
2021/01/12 03:01:37;;;;;;;64.60;38.35;;;-4.30;91.10;;;;;;5107975;28;20898;-71
2021/01/12 03:04:06;;;;;;;69.43;39.70;;;-4.30;91.20;;;;;;5112102;28;20407;-70
2021/01/12 03:06:32;;;;;;;70.35;39.17;;;-4.30;91.20;;;;;;5108280;28;20408;-70
2021/01/12 03:08:58;;;;;;;68.30;39.93;;;-4.40;91.00;;;;;;5093887;28;20433;-71
2021/01/12 03:11:25;;;;;;;68.25;39.15;;;-4.40;91.00;;;;;;5108007;28;20432;-70
2021/01/12 03:13:54;;;;;;;65.57;38.00;;;-4.40;91.10;;;;;;5094087;28;20408;-71
2021/01/12 03:16:23;;;;;;;68.00;37.22;;;-4.50;91.00;;;;;;5102806;28;20430;-71
2021/01/12 03:18:52;;;;;;;69.03;38.97;;;-4.50;90.80;;;;;;5073883;28;20993;-71
2021/01/12 03:21:18;;;;;;;66.72;38.50;;;-4.50;91.10;;;;;;5078948;28;20468;-70
2021/01/12 03:23:47;;;;;;;67.65;39.40;;;-4.60;91.20;;;;;;5093726;28;20416;-70
2021/01/12 03:26:16;;;;;;;63.45;36.70;;;-4.60;91.40;;;;;;5111402;28;20420;-70
2021/01/12 03:28:45;;;;;;;63.30;35.77;;;-4.70;91.30;;;;;;5109306;28;20412;-70
2021/01/12 03:31:11;;;;;;;64.45;36.60;;;-4.80;91.30;;;;;;5111385;28;20517;-70
2021/01/12 03:33:37;;;;;;;69.30;38.63;;;-4.80;91.20;;;;;;5100050;28;20486;-71
2021/01/12 03:36:04;;;;;;;70.00;38.43;;;-4.80;91.10;;;;;;5090714;28;20849;-70
2021/01/12 03:38:31;;;;;;;61.30;35.03;;;-4.80;91.20;;;;;;5090749;28;20486;-70
2021/01/12 03:40:57;;;;;;;59.17;34.80;;;-4.90;91.20;;;;;;5073210;28;20394;-70
2021/01/12 03:43:23;;;;;;;60.85;34.67;;;-4.90;91.30;;;;;;5097366;28;20432;-71
2021/01/12 03:45:51;;;;;;;68.20;35.63;;;-4.80;91.00;;;;;;5057330;28;20407;-71
2021/01/12 03:48:17;;;;;;;63.63;37.22;;;-4.80;91.10;;;;;;5080646;28;20778;-70
2021/01/12 03:50:46;;;;;;;61.35;36.10;;;-4.90;91.40;;;;;;5083582;28;20448;-70
2021/01/12 03:53:15;;;;;;;58.70;34.42;;;-5.00;91.50;;;;;;5107130;28;20404;-70
2021/01/12 03:55:43;;;;;;;64.25;35.78;;;-5.00;91.50;;;;;;5092853;28;20520;-71
2021/01/12 03:58:13;;;;;;;62.28;35.47;;;-5.00;91.50;;;;;;5108183;28;20492;-71
2021/01/12 04:00:42;;;;;;;70.45;39.97;;;-5.00;91.50;;;;;;5069525;28;20403;-71
2021/01/12 04:03:11;;;;;;;61.55;35.95;;;-5.00;91.80;;;;;;5053148;28;20408;-71
2021/01/12 04:05:43;;;;;;;65.90;36.63;;;-5.00;91.80;;;;;;5086899;28;20911;-71
2021/01/12 04:08:10;;;;;;;58.50;34.72;;;-5.00;91.80;;;;;;5092700;28;20485;-71
2021/01/12 04:10:37;;;;;;;62.78;35.45;;;-4.70;91.40;;;;;;5087924;28;20473;-71
2021/01/12 04:13:04;;;;;;;63.53;36.35;;;-4.70;90.90;;;;;;5110596;28;20400;-71
2021/01/12 04:15:31;;;;;;;65.78;38.00;;;-4.80;91.20;;;;;;5107717;28;20416;-71
2021/01/12 04:17:57;;;;;;;64.32;36.85;;;-4.80;91.60;;;;;;5111662;28;20799;-71
2021/01/12 04:20:24;;;;;;;65.55;38.13;;;-4.70;91.30;;;;;;5080279;28;20413;-71
2021/01/12 04:22:51;;;;;;;67.90;38.33;;;-4.80;91.20;;;;;;5090231;28;20618;-71
2021/01/12 04:25:18;;;;;;;65.22;37.95;;;-4.80;91.50;;;;;;5092665;28;20436;-71
2021/01/12 04:27:47;;;;;;;66.47;37.50;;;-4.60;91.20;;;;;;5092970;28;20404;-71
2021/01/12 04:30:16;;;;;;;62.97;36.63;;;-4.60;90.90;;;;;;5088835;28;20869;-71
2021/01/12 04:32:45;;;;;;;73.38;40.75;;;-4.60;90.90;;;;;;5110493;28;20794;-71
2021/01/12 04:35:12;;;;;;;70.57;40.42;;;-4.70;91.00;;;;;;5108029;28;20859;-71
2021/01/12 04:37:38;;;;;;;70.17;40.60;;;-5.00;91.50;;;;;;5105925;28;20813;-71
2021/01/12 04:40:06;;;;;;;67.82;38.05;;;-5.00;91.90;;;;;;5083158;28;20496;-70
2021/01/12 04:42:33;;;;;;;63.77;36.37;;;-4.90;91.90;;;;;;5084734;28;20429;-71
2021/01/12 04:45:04;;;;;;;67.43;38.35;;;-4.70;91.40;;;;;;5072248;28;20519;-70
2021/01/12 04:47:30;;;;;;;61.42;36.88;;;-4.70;91.20;;;;;;5101087;28;21000;-70
2021/01/12 04:49:59;;;;;;;69.03;39.22;;;-4.80;91.30;;;;;;5085505;28;20402;-71
2021/01/12 04:52:26;;;;;;;69.90;40.90;;;-5.00;91.80;;;;;;5088831;28;20412;-70
2021/01/12 04:54:53;;;;;;;71.13;41.22;;;-5.00;92.00;;;;;;5092313;28;20489;-70
2021/01/12 04:57:22;;;;;;;78.90;45.03;;;-5.00;92.10;;;;;;5088531;28;20424;-70
2021/01/12 04:59:48;;;;;;;92.20;50.63;;;-5.10;92.10;;;;;;5092312;28;20408;-71
2021/01/12 05:02:16;;;;;;;86.55;48.30;;;-5.10;92.30;;;;;;5088571;28;20404;-71
2021/01/12 05:04:43;;;;;;;81.20;45.50;;;-5.10;92.40;;;;;;5092752;28;21029;-71
2021/01/12 05:07:09;;;;;;;78.43;43.47;;;-5.10;92.40;;;;;;5106577;28;20744;-70
2021/01/12 05:09:38;;;;;;;78.88;43.92;;;-5.10;92.40;;;;;;5109915;28;20400;-70
2021/01/12 05:12:08;;;;;;;71.83;40.30;;;-5.10;92.40;;;;;;5110369;28;20568;-71
2021/01/12 05:14:37;;;;;;;77.40;40.85;;;-5.10;92.30;;;;;;5070071;28;20437;-70
2021/01/12 05:17:04;;;;;;;73.17;39.73;;;-5.00;92.20;;;;;;5072323;28;20410;-71
2021/01/12 05:19:35;;;;;;;68.18;39.85;;;-5.00;92.00;;;;;;5102789;28;20481;-71
2021/01/12 05:22:05;;;;;;;71.32;40.33;;;-5.10;92.20;;;;;;5079396;28;20463;-71
2021/01/12 05:24:41;;;;;;;71.05;41.22;;;-5.10;92.30;;;;;;5104334;28;20400;-71
2021/01/12 05:27:10;;;;;;;74.70;41.53;;;-5.00;92.20;;;;;;5096174;28;20457;-71
2021/01/12 05:29:38;;;;;;;67.00;39.63;;;-5.00;92.20;;;;;;5092458;28;20408;-71
2021/01/12 05:32:07;;;;;;;65.22;38.42;;;-5.00;92.10;;;;;;5095823;28;20408;-71
2021/01/12 05:34:38;;;;;;;67.65;39.38;;;-4.90;92.00;;;;;;5109831;28;20495;-70
2021/01/12 05:37:10;;;;;;;75.00;41.15;;;-5.00;92.00;;;;;;5095511;28;20424;-70
2021/01/12 05:39:44;;;;;;;69.70;38.60;;;-5.00;92.50;;;;;;5091085;28;20494;-71
2021/01/12 05:42:11;;;;;;;69.30;39.17;;;-5.00;92.30;;;;;;5075687;28;20407;-71
2021/01/12 05:44:41;;;;;;;72.15;39.47;;;-5.00;92.20;;;;;;5091148;28;20454;-71
2021/01/12 05:47:14;;;;;;;66.40;38.72;;;-5.00;92.20;;;;;;5097022;28;20418;-71
2021/01/12 05:49:49;;;;;;;64.93;37.17;;;-5.00;92.20;;;;;;5072023;28;20463;-70
2021/01/12 05:52:20;;;;;;;65.53;37.73;;;-4.90;92.20;;;;;;5093003;28;20480;-70
2021/01/12 05:55:03;;;;;;;68.03;38.08;;;-5.00;92.10;;;;;;5090038;28;20414;-70
2021/01/12 05:57:33;;;;;;;65.57;38.03;;;-5.00;92.30;;;;;;5113044;28;20415;-71
2021/01/12 06:00:06;;;;;;;63.00;34.87;;;-5.00;92.30;;;;;;5110804;28;20400;-70
2021/01/12 06:02:38;;;;;;;60.30;35.33;;;-5.00;92.10;;;;;;5072480;28;20400;-71
2021/01/12 06:05:05;;;;;;;58.53;32.97;;;-5.00;92.50;;;;;;5072168;28;20406;-71
2021/01/12 06:07:32;;;;;;;57.00;32.63;;;-4.90;92.10;;;;;;5088127;28;20533;-70
2021/01/12 06:10:00;;;;;;;53.33;32.25;;;-4.90;91.90;;;;;;5092147;28;20864;-70
2021/01/12 06:12:27;;;;;;;60.35;34.35;;;-5.00;91.90;;;;;;5104459;28;20408;-71
2021/01/12 06:14:58;;;;;;;57.55;34.25;;;-4.90;92.10;;;;;;5112863;28;20432;-71
2021/01/12 06:17:31;;;;;;;64.63;35.95;;;-5.00;92.20;;;;;;5096586;28;20421;-70
2021/01/12 06:20:04;;;;;;;61.67;35.58;;;-4.90;92.20;;;;;;5074692;28;20424;-71
2021/01/12 06:22:37;;;;;;;66.00;35.00;;;-4.90;92.40;;;;;;5081614;28;20408;-71
2021/01/12 06:25:07;;;;;;;60.75;33.47;;;-4.90;92.40;;;;;;5094911;28;20408;-70
2021/01/12 06:27:36;;;;;;;54.92;32.20;;;-4.80;91.80;;;;;;5100719;28;20449;-70
2021/01/12 06:30:08;;;;;;;51.88;30.65;;;-4.90;91.80;;;;;;5092180;28;20487;-70
2021/01/12 06:32:38;;;;;;;51.50;30.05;;;-4.90;92.00;;;;;;5076873;28;20477;-70
2021/01/12 06:35:07;;;;;;;54.00;31.15;;;-4.90;92.00;;;;;;5112707;28;20431;-70
2021/01/12 06:37:38;;;;;;;49.87;29.33;;;-4.90;92.10;;;;;;5072115;28;20477;-70
2021/01/12 06:40:10;;;;;;;47.38;28.88;;;-4.80;91.90;;;;;;5092035;28;20394;-70
2021/01/12 06:42:38;;;;;;;49.53;30.30;;;-4.80;91.60;;;;;;5090573;28;20435;-71
2021/01/12 06:45:09;;;;;;;54.83;29.77;;;-4.80;91.80;;;;;;5071474;28;20510;-70
2021/01/12 06:47:37;;;;;;;53.03;30.00;;;-4.70;91.70;;;;;;5054032;28;20427;-70
2021/01/12 06:50:07;;;;;;;52.80;30.20;;;-4.60;91.30;;;;;;5107251;28;20400;-71
2021/01/12 06:52:40;;;;;;;50.97;29.88;;;-4.70;91.40;;;;;;5112507;28;20408;-71
2021/01/12 06:55:08;;;;;;;51.80;30.63;;;-4.70;91.50;;;;;;5089973;28;20492;-71
2021/01/12 06:57:35;;;;;;;49.58;28.83;;;-4.70;91.60;;;;;;5096305;28;20430;-70
2021/01/12 07:00:05;;;;;;;49.53;30.33;;;-4.70;91.50;;;;;;5102874;28;20497;-70
2021/01/12 07:02:32;;;;;;;46.28;28.20;;;-4.80;91.80;;;;;;5094043;28;20396;-71
2021/01/12 07:04:58;;;;;;;51.50;29.02;;;-4.70;91.60;;;;;;5108102;28;20512;-71
2021/01/12 07:07:29;;;;;;;45.38;28.10;;;-4.70;91.70;;;;;;5086401;28;20475;-70
2021/01/12 07:10:00;;;;;;;49.22;28.63;;;-4.70;91.40;;;;;;5088297;28;20492;-71
2021/01/12 07:12:28;;;;;;;48.47;29.10;;;-4.60;91.40;;;;;;5091541;28;20402;-70
2021/01/12 07:14:57;;;;;;;48.37;29.33;;;-4.40;90.90;;;;;;5075518;28;20844;-71
2021/01/12 07:17:31;;;;;;;61.35;33.17;;;-4.50;90.70;;;;;;5111700;28;20420;-71
2021/01/12 07:20:01;;;;;;;54.45;30.13;;;-4.60;91.30;;;;;;5108077;28;20805;-71
2021/01/12 07:22:31;;;;;;;45.92;26.83;;;-4.60;91.30;;;;;;5109652;28;20435;-71
2021/01/12 07:25:00;;;;;;;49.78;27.73;;;-4.50;91.00;;;;;;5107929;28;20424;-71
2021/01/12 07:27:29;;;;;;;44.85;26.77;;;-4.50;91.00;;;;;;5111265;28;20408;-71
2021/01/12 07:29:56;;;;;;;45.38;26.45;;;-4.40;90.80;;;;;;5093539;28;20453;-71
2021/01/12 07:32:31;;;;;;;42.50;25.13;;;-4.40;91.10;;;;;;5107418;28;20477;-70
2021/01/12 07:35:00;;;;;;;44.28;26.48;;;-4.20;90.40;;;;;;5111209;28;20440;-70
2021/01/12 07:37:44;;;;;;;52.15;29.13;;;-4.00;90.10;;;;;;5107305;28;20447;-71
2021/01/12 07:40:14;;;;;;;48.10;27.70;;;-4.30;90.40;;;;;;5075718;28;20441;-70
2021/01/12 07:42:59;;;;;;;58.78;31.92;;;-4.30;90.80;;;;;;5074472;28;20410;-71
2021/01/12 07:45:33;;;;;;;50.75;29.00;;;-4.40;90.90;;;;;;5098845;28;20498;-71
2021/01/12 07:48:01;;;;;;;51.70;29.95;;;-4.40;90.80;;;;;;5073438;28;20522;-71
2021/01/12 07:50:29;;;;;;;62.10;32.75;;;-4.40;90.90;;;;;;5094605;28;20496;-71
2021/01/12 07:52:57;;;;;;;51.42;29.95;;;-4.40;90.90;;;;;;5076624;28;20414;-71
2021/01/12 07:55:24;;;;;;;49.08;28.45;;;-4.40;91.00;;;;;;5071813;28;20414;-71
2021/01/12 07:57:56;;;;;;;49.53;27.63;;;-4.30;91.10;;;;;;5080188;28;20428;-71
2021/01/12 08:00:24;;;;;;;49.25;27.73;;;-4.40;91.10;;;;;;5109591;28;20793;-70
2021/01/12 08:02:52;;;;;;;45.42;27.63;;;-4.40;91.30;;;;;;5106752;28;20404;-70
2021/01/12 08:05:24;;;;;;;45.33;28.23;;;-4.40;91.40;;;;;;5110832;28;20404;-70
2021/01/12 08:08:05;;;;;;;48.08;26.90;;;-4.30;91.30;;;;;;5089338;28;20726;-70
2021/01/12 08:10:33;;;;;;;45.22;26.00;;;-4.30;91.30;;;;;;5087718;28;20413;-70
2021/01/12 08:13:07;;;;;;;44.00;26.35;;;-4.20;91.20;;;;;;5056502;28;20412;-70
2021/01/12 08:15:37;;;;;;;46.33;26.08;;;-4.20;90.90;;;;;;5091899;28;20504;-70
2021/01/12 08:18:14;;;;;;;45.40;26.33;;;-4.20;91.00;;;;;;5085979;28;20840;-70
2021/01/12 08:20:41;;;;;;;48.38;27.08;;;-4.10;91.00;;;;;;5094298;28;20427;-70
2021/01/12 08:23:10;;;;;;;44.03;26.20;;;-4.10;91.00;;;;;;5090340;28;20515;-70
2021/01/12 08:25:37;;;;;;;45.75;25.35;;;-4.10;91.00;;;;;;5092935;28;20380;-70
2021/01/12 08:28:07;;;;;;;48.25;27.25;;;-4.00;91.00;;;;;;5110174;28;20457;-70
2021/01/12 08:30:35;;;;;;;51.45;28.27;;;-4.00;91.00;;;;;;5063557;28;20517;-70
2021/01/12 08:33:20;;;;;;;51.67;26.42;;;-3.90;90.90;;;;;;5071947;28;20398;-70
2021/01/12 08:35:59;;;;;;;46.20;25.95;;;-3.90;90.70;;;;;;5086086;28;20440;-70
2021/01/12 08:38:31;;;;;;;70.53;32.58;;;-3.80;90.70;;;;;;5092001;28;20420;-70
2021/01/12 08:40:59;;;;;;;70.57;32.57;;;-3.70;90.60;;;;;;5106646;28;20426;-70
2021/01/12 08:43:30;;;;;;;89.95;39.00;;;-3.60;90.50;;;;;;5076210;28;20400;-70
2021/01/12 08:46:03;;;;;;;91.10;38.55;;;-3.40;90.30;;;;;;5097212;28;20428;-70
2021/01/12 08:48:30;;;;;;;90.25;40.28;;;-3.20;90.00;;;;;;5092093;28;20422;-70
2021/01/12 08:50:58;;;;;;;69.47;35.78;;;-3.10;89.60;;;;;;5081227;28;20408;-70
2021/01/12 08:53:30;;;;;;;55.60;30.60;;;-2.80;88.70;;;;;;5092164;28;20400;-70
2021/01/12 08:56:07;;;;;;;52.00;28.27;;;-2.60;87.70;;;;;;5088900;28;20444;-70
2021/01/12 08:58:33;;;;;;;50.78;28.48;;;-2.40;86.70;;;;;;5114104;28;20428;-70
2021/01/12 09:01:03;;;;;;;55.63;30.88;;;-2.30;86.00;;;;;;5086448;28;20409;-70
2021/01/12 09:03:31;;;;;;;56.28;32.08;;;-2.30;85.80;;;;;;5075160;28;20504;-70
2021/01/12 09:06:02;;;;;;;51.63;30.87;;;-2.30;85.70;;;;;;5075836;28;20418;-70
2021/01/12 09:08:28;;;;;;;60.20;32.15;;;-2.40;85.60;;;;;;5094854;28;20481;-70
2021/01/12 09:11:07;;;;;;;58.37;30.93;;;-2.30;86.10;;;;;;5110758;28;20392;-70
2021/01/12 09:13:37;;;;;;;52.55;30.73;;;-2.30;86.10;;;;;;5072326;28;20457;-70
2021/01/12 09:16:04;;;;;;;46.10;27.17;;;-2.20;86.20;;;;;;5055606;28;20497;-70
2021/01/12 09:18:36;;;;;;;49.10;26.05;;;-2.20;84.40;;;;;;5091794;28;21095;-70
2021/01/12 09:21:08;;;;;;;48.35;26.48;;;-2.20;84.70;;;;;;5113874;28;20465;-70
2021/01/12 09:23:37;;;;;;;44.53;24.80;;;-2.10;84.70;;;;;;5091920;28;20397;-70
2021/01/12 09:26:06;;;;;;;38.00;23.00;;;-2.10;83.70;;;;;;5113647;28;20419;-70
2021/01/12 09:28:38;;;;;;;37.78;22.02;;;-1.90;82.50;;;;;;5109008;28;20468;-70
2021/01/12 09:31:12;;;;;;;35.05;21.67;;;-1.90;81.80;;;;;;5095385;28;20755;-70
2021/01/12 09:33:49;;;;;;;32.17;20.70;;;-1.70;82.00;;;;;;5102389;28;20412;-70
2021/01/12 09:36:18;;;;;;;38.87;22.83;;;-1.60;81.00;;;;;;5113331;28;20452;-70
2021/01/12 09:38:48;;;;;;;41.03;23.23;;;-1.60;80.90;;;;;;5091612;28;20613;-71
2021/01/12 09:41:16;;;;;;;36.67;22.63;;;-1.50;81.50;;;;;;5113336;28;20404;-71
2021/01/12 09:43:43;;;;;;;34.72;21.38;;;-1.50;81.50;;;;;;5103911;28;20493;-70
2021/01/12 09:46:10;;;;;;;34.57;19.93;;;-1.40;80.80;;;;;;5054953;28;20762;-70
2021/01/12 09:48:38;;;;;;;33.80;21.60;;;-1.40;81.30;;;;;;5080967;28;20412;-71
2021/01/12 09:51:05;;;;;;;34.05;21.00;;;-1.30;80.00;;;;;;5089410;28;20443;-70
2021/01/12 09:53:32;;;;;;;43.55;24.15;;;-1.30;79.90;;;;;;5075167;28;20421;-70
2021/01/12 09:55:59;;;;;;;41.90;24.90;;;-1.30;80.30;;;;;;5112826;28;20424;-71
2021/01/12 09:58:28;;;;;;;42.00;25.23;;;-1.20;80.30;;;;;;5097040;28;20430;-71
2021/01/12 10:00:55;;;;;;;40.23;24.60;;;-1.20;80.10;;;;;;5108432;28;20408;-71
2021/01/12 10:03:22;;;;;;;40.50;23.77;;;-1.20;78.90;;;;;;5095296;28;20412;-71
2021/01/12 10:05:51;;;;;;;43.03;24.85;;;-1.20;79.50;;;;;;5108979;28;20751;-71
2021/01/12 10:08:20;;;;;;;47.27;26.50;;;-1.30;79.50;;;;;;5097860;28;20908;-71
2021/01/12 10:10:46;;;;;;;47.70;27.95;;;-1.40;80.90;;;;;;5070955;28;20402;-70
2021/01/12 10:13:13;;;;;;;51.28;28.23;;;-1.30;81.10;;;;;;5092245;28;20410;-71
2021/01/12 10:15:39;;;;;;;50.90;27.80;;;-1.20;81.10;;;;;;5098961;28;20921;-70
2021/01/12 10:18:06;;;;;;;45.30;28.02;;;-1.20;80.90;;;;;;5112413;28;20503;-71
2021/01/12 10:20:36;;;;;;;52.85;28.45;;;-1.20;80.10;;;;;;5088669;28;20458;-71
2021/01/12 10:23:02;;;;;;;53.50;28.45;;;-1.10;80.50;;;;;;5112546;28;20431;-71
2021/01/12 10:25:29;;;;;;;51.15;28.83;;;-1.10;80.40;;;;;;5108722;28;20437;-71
2021/01/12 10:27:59;;;;;;;48.78;28.40;;;-1.10;80.20;;;;;;5112924;28;20431;-71
2021/01/12 10:30:25;;;;;;;46.50;27.48;;;-1.10;80.10;;;;;;5109332;28;20483;-70
2021/01/12 10:32:52;;;;;;;55.67;31.38;;;-1.10;80.10;;;;;;5111972;28;20420;-70
2021/01/12 10:35:19;;;;;;;51.97;31.40;;;-1.00;80.70;;;;;;5111825;28;20396;-71
2021/01/12 10:37:46;;;;;;;55.80;32.38;;;-1.10;80.80;;;;;;5108292;28;20425;-70
2021/01/12 10:40:16;;;;;;;57.60;32.20;;;-1.10;80.70;;;;;;5109866;28;20480;-70
2021/01/12 10:42:43;;;;;;;54.10;32.05;;;-1.10;81.20;;;;;;5090408;28;20473;-70
2021/01/12 10:45:11;;;;;;;60.72;33.10;;;-1.10;80.60;;;;;;5087359;28;20413;-70
2021/01/12 10:47:44;;;;;;;60.47;33.27;;;-1.10;80.90;;;;;;5074016;28;20436;-71
2021/01/12 10:50:15;;;;;;;68.22;33.33;;;-1.20;81.30;;;;;;5087828;28;20409;-70
2021/01/12 10:52:42;;;;;;;62.23;32.27;;;-1.20;80.60;;;;;;5107825;28;20461;-70
2021/01/12 10:55:11;;;;;;;65.60;33.08;;;-1.20;81.10;;;;;;5111557;28;20461;-71
2021/01/12 10:57:42;;;;;;;60.27;33.97;;;-1.20;81.60;;;;;;5098813;28;20741;-71
2021/01/12 11:00:10;;;;;;;60.88;34.00;;;-1.20;81.90;;;;;;5073719;28;21098;-71
2021/01/12 11:02:36;;;;;;;59.90;34.80;;;-1.20;82.40;;;;;;5073667;28;20407;-71
2021/01/12 11:05:03;;;;;;;64.83;35.17;;;-1.20;82.10;;;;;;5111856;28;20412;-70
2021/01/12 11:07:33;;;;;;;63.37;34.87;;;-1.20;82.50;;;;;;5109167;28;20461;-71
2021/01/12 11:10:00;;;;;;;60.70;33.97;;;-1.20;82.10;;;;;;5053585;28;20485;-71
2021/01/12 11:12:27;;;;;;;69.17;37.13;;;-1.20;82.60;;;;;;5070784;28;20465;-71
2021/01/12 11:14:55;;;;;;;62.73;35.23;;;-1.10;82.40;;;;;;5101324;28;20471;-72
2021/01/12 11:17:21;;;;;;;64.50;35.30;;;-1.20;82.10;;;;;;5093354;28;20468;-71
2021/01/12 11:19:52;;;;;;;71.28;41.03;;;-1.20;82.10;;;;;;5106624;28;20426;-71
2021/01/12 11:22:26;;;;;;;72.03;42.20;;;-1.20;82.40;;;;;;5075414;28;20433;-71
2021/01/12 11:24:55;;;;;;;61.80;36.42;;;-1.20;82.70;;;;;;5082301;28;20603;-71
2021/01/12 11:27:21;;;;;;;61.70;35.67;;;-1.10;82.50;;;;;;5111068;28;20429;-71
2021/01/12 11:29:48;;;;;;;63.28;35.28;;;-1.10;82.40;;;;;;5106595;28;20844;-71
2021/01/12 11:32:18;;;;;;;65.72;36.58;;;-1.10;81.90;;;;;;5092762;28;20791;-71
2021/01/12 11:34:49;;;;;;;66.90;36.40;;;-1.10;81.80;;;;;;5081735;28;20741;-70
2021/01/12 11:37:16;;;;;;;65.50;35.42;;;-1.20;82.00;;;;;;5092986;28;20444;-71
2021/01/12 11:39:45;;;;;;;60.22;35.05;;;-1.20;82.10;;;;;;5089609;28;20415;-71
2021/01/12 11:42:13;;;;;;;60.08;35.22;;;-1.20;81.90;;;;;;5110938;28;20432;-71
2021/01/12 11:44:40;;;;;;;62.50;34.20;;;-1.20;82.10;;;;;;5075987;28;20469;-71
2021/01/12 11:47:09;;;;;;;67.47;36.80;;;-1.20;82.00;;;;;;5110901;28;20396;-70
2021/01/12 11:49:36;;;;;;;64.95;34.45;;;-1.10;81.70;;;;;;5108881;28;20386;-71
2021/01/12 11:52:09;;;;;;;71.30;36.77;;;-1.10;81.70;;;;;;5086508;28;20420;-71
2021/01/12 11:54:36;;;;;;;69.88;37.42;;;-1.00;82.20;;;;;;5081446;28;20889;-70
2021/01/12 11:57:05;;;;;;;79.88;37.33;;;-0.80;81.90;;;;;;5084760;28;20828;-71
2021/01/12 11:59:34;;;;;;;67.77;37.53;;;-0.70;81.70;;;;;;5073932;28;20402;-71
2021/01/12 12:02:01;;;;;;;71.45;39.35;;;-0.70;81.50;;;;;;5082357;28;20427;-71
2021/01/12 12:04:29;;;;;;;70.35;38.78;;;-0.70;82.30;;;;;;5052681;28;20875;-71
2021/01/12 12:07:03;;;;;;;68.93;39.55;;;-0.70;81.70;;;;;;5059747;28;20433;-71
2021/01/12 12:09:35;;;;;;;73.30;37.83;;;-0.70;82.20;;;;;;5072800;28;20402;-71
2021/01/12 12:12:02;;;;;;;75.45;38.53;;;-0.70;82.80;;;;;;5077311;28;20443;-71
2021/01/12 12:14:29;;;;;;;67.05;37.83;;;-0.50;82.80;;;;;;5110625;28;20422;-71
2021/01/12 12:16:59;;;;;;;74.47;38.13;;;-0.40;82.30;;;;;;5106964;28;20404;-71
2021/01/12 12:19:26;;;;;;;68.00;36.53;;;-0.30;81.40;;;;;;5106346;28;21237;-71
2021/01/12 12:21:55;;;;;;;67.47;36.65;;;-0.20;80.00;;;;;;5100825;28;20453;-71
2021/01/12 12:24:29;;;;;;;68.15;36.85;;;-0.20;80.40;;;;;;5092577;28;20702;-71
2021/01/12 12:27:02;;;;;;;69.28;37.50;;;-0.10;80.00;;;;;;5109694;28;20759;-71
2021/01/12 12:29:30;;;;;;;64.28;35.65;;;-0.10;80.70;;;;;;5065144;28;20433;-71
2021/01/12 12:32:06;;;;;;;66.43;36.00;;;-0.10;81.30;;;;;;5093572;28;20410;-73
2021/01/12 12:34:35;;;;;;;72.97;36.75;;;0.20;85.10;;;;;;5091724;28;20442;-73